createdAt,value
2023-03-20T00:00:32.466Z,8.63
2023-03-20T00:02:59.325Z,9.40
2023-03-20T00:05:28.736Z,9.83
2023-03-20T00:07:55.777Z,9.37
2023-03-20T00:10:26.120Z,9.67
2023-03-20T00:12:52.950Z,9.27
2023-03-20T00:15:33.482Z,9.37
2023-03-20T00:18:00.713Z,9.40
2023-03-20T00:20:28.485Z,9.60
2023-03-20T00:22:56.302Z,9.00
2023-03-20T00:25:26.159Z,9.07
2023-03-20T00:27:53.217Z,9.40
2023-03-20T00:30:28.645Z,8.40
2023-03-20T00:32:59.517Z,9.10
2023-03-20T00:35:29.612Z,9.20
2023-03-20T00:37:58.206Z,8.70
2023-03-20T00:40:29.772Z,8.80
2023-03-20T00:43:00.119Z,8.23
2023-03-20T00:45:28.920Z,8.80
2023-03-20T00:47:58.483Z,8.13
2023-03-20T00:50:29.985Z,8.83
2023-03-20T00:52:58.453Z,8.57
2023-03-20T00:55:28.274Z,9.40
2023-03-20T00:57:56.776Z,9.27
2023-03-20T01:00:29.241Z,9.17
2023-03-20T01:02:58.908Z,8.93
2023-03-20T01:05:27.525Z,9.40
2023-03-20T01:07:54.613Z,9.13
2023-03-20T01:10:22.120Z,9.00
2023-03-20T01:12:49.022Z,9.67
2023-03-20T01:15:20.122Z,10.07
2023-03-20T01:17:47.772Z,9.67
2023-03-20T01:20:20.231Z,10.17
2023-03-20T01:22:47.051Z,10.47
2023-03-20T01:25:14.445Z,11.93
2023-03-20T01:27:49.774Z,12.47
2023-03-20T01:30:25.079Z,14.23
2023-03-20T01:32:52.474Z,14.60
2023-03-20T01:35:23.836Z,14.97
2023-03-20T01:37:52.186Z,15.63
2023-03-20T01:40:33.758Z,17.10
2023-03-20T01:43:02.620Z,17.00
2023-03-20T01:45:34.446Z,17.87
2023-03-20T01:48:12.263Z,18.90
2023-03-20T01:50:40.998Z,20.17
2023-03-20T01:53:14.160Z,24.00
2023-03-20T01:55:43.334Z,25.40
2023-03-20T01:58:15.599Z,24.97
2023-03-20T02:00:42.694Z,26.70
2023-03-20T02:03:09.911Z,26.77
2023-03-20T02:05:38.907Z,27.87
2023-03-20T02:08:29.337Z,26.63
2023-03-20T02:10:59.669Z,28.20
2023-03-20T02:13:27.929Z,27.13
2023-03-20T02:16:01.921Z,28.43
2023-03-20T02:18:29.583Z,28.10
2023-03-20T02:21:43.821Z,29.43
2023-03-20T02:24:44.933Z,27.97
2023-03-20T02:27:19.699Z,28.37
2023-03-20T02:30:35.993Z,32.97
2023-03-20T02:33:53.857Z,31.73
2023-03-20T02:36:58.297Z,31.97
2023-03-20T02:39:51.280Z,30.70
2023-03-20T02:42:26.910Z,31.70
2023-03-20T02:45:04.063Z,31.57
2023-03-20T02:47:37.563Z,31.27
2023-03-20T02:50:16.437Z,32.33
2023-03-20T02:52:50.308Z,31.60
2023-03-20T02:55:27.639Z,32.20
2023-03-20T02:57:59.135Z,32.43
2023-03-20T03:00:30.572Z,33.03
2023-03-20T03:03:04.813Z,32.57
2023-03-20T03:05:37.809Z,32.53
2023-03-20T03:08:07.875Z,32.53
2023-03-20T03:10:40.324Z,33.43
2023-03-20T03:13:12.968Z,35.83
2023-03-20T03:15:43.133Z,36.47
2023-03-20T03:18:15.754Z,35.97
2023-03-20T03:20:44.416Z,37.53
2023-03-20T03:23:20.264Z,38.00
2023-03-20T03:25:49.367Z,37.97
2023-03-20T03:28:26.256Z,37.83
2023-03-20T03:30:55.621Z,39.10
2023-03-20T03:33:25.258Z,40.30
2023-03-20T03:35:57.005Z,38.30
2023-03-20T03:38:30.249Z,38.53
2023-03-20T03:41:14.989Z,38.27
2023-03-20T03:43:46.067Z,38.80
2023-03-20T03:46:20.744Z,39.37
2023-03-20T03:48:52.776Z,40.43
2023-03-20T03:51:23.784Z,40.00
2023-03-20T03:53:55.682Z,36.13
2023-03-20T03:56:27.491Z,35.73
2023-03-20T03:58:58.246Z,34.40
2023-03-20T04:01:27.753Z,35.97
2023-03-20T04:04:01.012Z,32.83
2023-03-20T04:06:29.036Z,31.40
2023-03-20T04:08:55.942Z,30.63
2023-03-20T04:11:26.779Z,31.17
2023-03-20T04:13:53.933Z,29.70
2023-03-20T04:16:23.474Z,29.33
2023-03-20T04:18:50.856Z,27.93
2023-03-20T04:21:18.907Z,29.37
2023-03-20T04:23:46.757Z,27.70
2023-03-20T04:26:14.189Z,26.83
2023-03-20T04:28:42.373Z,29.03
2023-03-20T04:31:09.555Z,28.33
2023-03-20T04:33:36.404Z,27.40
2023-03-20T04:36:03.891Z,24.93
2023-03-20T04:38:30.788Z,25.97
2023-03-20T04:40:58.190Z,27.07
2023-03-20T04:43:25.011Z,28.40
2023-03-20T04:45:53.560Z,26.87
2023-03-20T04:48:20.691Z,28.73
2023-03-20T04:50:48.868Z,28.77
2023-03-20T04:53:16.215Z,28.37
2023-03-20T04:55:44.146Z,29.37
2023-03-20T04:58:11.240Z,29.93
2023-03-20T05:00:38.660Z,30.27
2023-03-20T05:03:07.081Z,29.53
2023-03-20T05:05:38.210Z,29.13
2023-03-20T05:08:06.066Z,31.03
2023-03-20T05:10:33.266Z,27.93
2023-03-20T05:13:00.112Z,29.07
2023-03-20T05:15:27.239Z,29.87
2023-03-20T05:17:54.973Z,29.03
2023-03-20T05:20:23.558Z,29.70
2023-03-20T05:22:51.101Z,28.30
2023-03-20T05:25:18.515Z,29.37
2023-03-20T05:27:46.485Z,29.00
2023-03-20T05:30:14.685Z,28.53
2023-03-20T05:32:43.629Z,27.73
2023-03-20T05:35:10.938Z,30.13
2023-03-20T05:37:39.602Z,27.87
2023-03-20T05:40:08.714Z,28.87
2023-03-20T05:42:35.570Z,28.27
2023-03-20T05:45:02.753Z,27.57
2023-03-20T05:47:29.647Z,27.33
2023-03-20T05:49:56.986Z,27.20
2023-03-20T05:52:24.155Z,26.90
2023-03-20T05:54:52.715Z,25.87
2023-03-20T05:57:19.765Z,23.53
2023-03-20T05:59:46.849Z,23.37
2023-03-20T06:02:13.855Z,23.23
2023-03-20T06:04:41.320Z,24.73
2023-03-20T06:07:08.177Z,23.83
2023-03-20T06:09:35.095Z,24.87
2023-03-20T06:12:03.546Z,24.17
2023-03-20T06:14:30.840Z,22.00
2023-03-20T06:16:57.970Z,22.97
2023-03-20T06:19:25.172Z,22.73
2023-03-20T06:21:51.967Z,23.93
2023-03-20T06:24:19.318Z,22.97
2023-03-20T06:26:46.177Z,23.90
2023-03-20T06:29:14.762Z,23.80
2023-03-20T06:31:41.609Z,24.00
2023-03-20T06:34:09.003Z,22.37
2023-03-20T06:36:36.008Z,24.60
2023-03-20T06:39:04.241Z,22.77
2023-03-20T06:41:34.611Z,23.40
2023-03-20T06:44:02.609Z,22.60
2023-03-20T06:46:31.353Z,23.93
2023-03-20T06:48:59.749Z,23.57
2023-03-20T06:51:26.988Z,24.47
2023-03-20T06:53:54.112Z,24.03
2023-03-20T06:56:20.923Z,23.97
2023-03-20T06:58:48.268Z,24.00
2023-03-20T07:01:17.770Z,23.70
2023-03-20T07:03:46.505Z,24.23
2023-03-20T07:06:13.441Z,22.80
2023-03-20T07:08:40.414Z,24.40
2023-03-20T07:11:07.915Z,24.63
2023-03-20T07:13:35.334Z,25.07
2023-03-20T07:16:04.955Z,23.77
2023-03-20T07:18:32.714Z,24.87
2023-03-20T07:21:03.039Z,24.63
2023-03-20T07:23:30.854Z,24.43
2023-03-20T07:25:58.224Z,25.13
2023-03-20T07:28:26.655Z,25.27
2023-03-20T07:30:53.597Z,24.90
2023-03-20T07:33:21.262Z,24.90
2023-03-20T07:35:52.833Z,25.83
2023-03-20T07:38:21.250Z,25.13
2023-03-20T07:40:48.951Z,24.87
2023-03-20T07:43:16.599Z,25.67
2023-03-20T07:45:43.849Z,25.67
2023-03-20T07:48:11.040Z,25.30
2023-03-20T07:50:37.871Z,25.50
2023-03-20T07:53:04.695Z,25.60
2023-03-20T07:55:32.853Z,25.53
2023-03-20T07:57:59.898Z,27.03
2023-03-20T08:00:28.208Z,25.90
2023-03-20T08:02:57.101Z,25.03
2023-03-20T08:05:24.524Z,25.67
2023-03-20T08:07:51.767Z,26.97
2023-03-20T08:10:19.013Z,27.47
2023-03-20T08:12:47.627Z,26.40
2023-03-20T08:15:14.449Z,26.00
2023-03-20T08:17:43.756Z,25.43
2023-03-20T08:20:11.891Z,26.97
2023-03-20T08:22:38.837Z,26.07
2023-03-20T08:25:08.359Z,26.47
2023-03-20T08:27:35.536Z,26.07
2023-03-20T08:30:04.387Z,26.00
2023-03-20T08:32:31.311Z,25.33
2023-03-20T08:34:58.274Z,25.80
2023-03-20T08:37:25.125Z,27.60
2023-03-20T08:39:52.099Z,26.47
2023-03-20T08:42:19.296Z,27.93
2023-03-20T08:44:48.215Z,28.23
2023-03-20T08:47:16.686Z,27.53
2023-03-20T08:49:43.714Z,27.53
2023-03-20T08:52:10.787Z,25.67
2023-03-20T08:54:37.726Z,26.93
2023-03-20T08:57:04.658Z,26.17
2023-03-20T08:59:33.025Z,21.90
2023-03-20T09:01:59.994Z,25.30
2023-03-20T09:04:28.270Z,23.87
2023-03-20T09:06:55.263Z,25.13
2023-03-20T09:09:27.452Z,24.73
2023-03-20T09:11:54.272Z,23.90
2023-03-20T09:14:21.445Z,24.90
2023-03-20T09:16:48.754Z,25.13
2023-03-20T09:19:16.131Z,22.97
2023-03-20T09:21:44.299Z,23.10
2023-03-20T09:24:12.266Z,21.80
2023-03-20T09:26:39.586Z,25.13
2023-03-20T09:29:06.524Z,24.47
2023-03-20T09:31:36.313Z,24.27
2023-03-20T09:34:03.249Z,24.47
2023-03-20T09:36:30.188Z,24.07
2023-03-20T09:38:58.587Z,19.67
2023-03-20T09:41:45.828Z,19.13
2023-03-20T09:44:35.663Z,22.97
2023-03-20T09:47:19.928Z,23.60
2023-03-20T09:49:58.832Z,23.87
2023-03-20T09:52:32.183Z,23.00
2023-03-20T09:55:03.597Z,23.00
2023-03-20T09:57:42.498Z,24.40
2023-03-20T10:00:16.693Z,25.03
2023-03-20T10:02:49.463Z,23.77
2023-03-20T10:05:22.370Z,22.73
2023-03-20T10:07:50.094Z,23.97
2023-03-20T10:10:20.403Z,24.37
2023-03-20T10:12:58.355Z,23.93
2023-03-20T10:15:37.895Z,23.23
2023-03-20T10:18:15.735Z,22.73
2023-03-20T10:20:50.335Z,23.50
2023-03-20T10:23:27.139Z,25.70
2023-03-20T10:26:00.584Z,25.50
2023-03-20T10:28:34.265Z,20.77
2023-03-20T10:31:09.491Z,22.97
2023-03-20T10:33:48.802Z,23.17
2023-03-20T10:36:33.835Z,23.60
2023-03-20T10:39:08.172Z,23.33
2023-03-20T10:41:39.477Z,23.43
2023-03-20T10:44:14.596Z,23.00
2023-03-20T10:46:46.944Z,22.37
2023-03-20T10:49:17.877Z,22.40
2023-03-20T10:51:49.625Z,20.37
2023-03-20T10:54:24.786Z,20.13
2023-03-20T10:56:56.399Z,21.27
2023-03-20T10:59:26.281Z,21.20
2023-03-20T11:01:53.460Z,20.87
2023-03-20T11:04:21.106Z,20.90
2023-03-20T11:06:54.192Z,21.40
2023-03-20T11:09:22.975Z,20.70
2023-03-20T11:11:56.748Z,20.53
2023-03-20T11:14:26.245Z,22.90
2023-03-20T11:16:55.206Z,23.27
2023-03-20T11:19:24.269Z,24.20
2023-03-20T11:21:53.814Z,26.93
2023-03-20T11:24:26.703Z,26.40
2023-03-20T11:27:07.560Z,27.50
2023-03-20T11:29:36.108Z,28.80
2023-03-20T11:32:19.797Z,28.27
2023-03-20T11:34:47.752Z,30.63
2023-03-20T11:37:25.136Z,28.77
2023-03-20T11:40:00.292Z,30.57
2023-03-20T11:42:30.812Z,28.57
2023-03-20T11:45:00.294Z,25.13
2023-03-20T11:47:29.021Z,23.33
2023-03-20T11:49:58.300Z,21.77
2023-03-20T11:52:29.323Z,20.10
2023-03-20T11:54:58.594Z,20.77
2023-03-20T11:57:36.321Z,20.53
2023-03-20T12:00:06.977Z,19.27
2023-03-20T12:02:37.433Z,17.43
2023-03-20T12:05:19.750Z,19.80
2023-03-20T12:07:50.870Z,17.23
2023-03-20T12:10:19.424Z,18.00
2023-03-20T12:12:50.957Z,18.30
2023-03-20T12:15:24.711Z,17.33
2023-03-20T12:17:57.282Z,15.90
2023-03-20T12:20:30.369Z,18.27
2023-03-20T12:23:04.188Z,17.63
2023-03-20T12:25:37.538Z,18.27
2023-03-20T12:28:13.832Z,17.73
2023-03-20T12:30:54.674Z,15.83
2023-03-20T12:33:32.689Z,14.07
2023-03-20T12:36:01.642Z,13.30
2023-03-20T12:38:31.729Z,12.63
2023-03-20T12:41:07.453Z,12.20
2023-03-20T12:43:47.550Z,13.83
2023-03-20T12:46:26.095Z,13.93
2023-03-20T12:49:02.957Z,13.33
2023-03-20T12:51:43.007Z,14.17
2023-03-20T12:54:21.583Z,14.67
2023-03-20T12:57:01.127Z,13.97
2023-03-20T12:59:37.508Z,15.53
2023-03-20T13:02:18.118Z,13.50
2023-03-20T13:04:53.969Z,12.93
2023-03-20T13:07:22.182Z,12.80
2023-03-20T13:10:18.462Z,13.03
2023-03-20T13:13:00.394Z,12.83
2023-03-20T13:15:41.050Z,12.70
2023-03-20T13:18:18.758Z,12.77
2023-03-20T13:20:50.816Z,14.80
2023-03-20T13:23:24.252Z,13.73
2023-03-20T13:26:18.212Z,13.60
2023-03-20T13:28:53.500Z,13.93
2023-03-20T13:31:38.072Z,13.97
2023-03-20T13:34:17.895Z,13.73
2023-03-20T13:36:56.069Z,13.63
2023-03-20T13:39:29.319Z,13.80
2023-03-20T13:41:57.258Z,13.57
2023-03-20T13:44:27.295Z,13.57
2023-03-20T13:46:59.680Z,14.00
2023-03-20T13:49:36.773Z,14.67
2023-03-20T13:52:07.451Z,13.07
2023-03-20T13:54:46.802Z,12.53
2023-03-20T13:57:23.402Z,12.43
2023-03-20T14:00:01.434Z,12.10
2023-03-20T14:02:41.369Z,12.77
2023-03-20T14:05:14.121Z,12.90
2023-03-20T14:07:44.883Z,13.00
2023-03-20T14:10:39.656Z,12.70
2023-03-20T14:13:13.860Z,12.07
2023-03-20T14:15:48.603Z,13.17
2023-03-20T14:18:18.953Z,12.50
2023-03-20T14:20:56.821Z,12.10
2023-03-20T14:23:34.867Z,11.60
2023-03-20T14:26:06.111Z,10.63
2023-03-20T14:28:45.586Z,11.20
2023-03-20T14:31:25.595Z,11.73
2023-03-20T14:34:07.526Z,10.80
2023-03-20T14:36:45.840Z,10.33
2023-03-20T14:39:22.858Z,11.03
2023-03-20T14:42:01.991Z,9.43
2023-03-20T14:44:45.162Z,9.00
2023-03-20T14:47:26.196Z,10.30
2023-03-20T14:49:58.695Z,9.67
2023-03-20T14:52:36.039Z,8.40
2023-03-20T14:55:42.459Z,8.60
2023-03-20T14:58:43.624Z,8.00
2023-03-20T15:01:19.696Z,8.73
2023-03-20T15:03:50.600Z,8.47
2023-03-20T15:06:22.669Z,9.27
2023-03-20T15:08:53.011Z,9.30
2023-03-20T15:11:22.499Z,9.17
2023-03-20T15:13:50.612Z,9.87
2023-03-20T15:16:24.927Z,10.37
2023-03-20T15:18:53.137Z,9.83
2023-03-20T15:21:30.881Z,9.90
2023-03-20T15:23:58.664Z,10.03
2023-03-20T15:26:26.998Z,10.40
2023-03-20T15:29:00.555Z,10.40
2023-03-20T15:31:30.880Z,10.37
2023-03-20T15:33:59.087Z,10.47
2023-03-20T15:36:30.152Z,10.57
2023-03-20T15:39:07.048Z,11.03
2023-03-20T15:41:35.364Z,11.40
2023-03-20T15:44:15.369Z,12.10
2023-03-20T15:46:50.772Z,11.80
2023-03-20T15:49:17.876Z,11.70
2023-03-20T15:51:47.034Z,10.93
2023-03-20T15:54:16.170Z,15.57
2023-03-20T15:56:45.974Z,18.87
2023-03-20T15:59:17.112Z,12.37
2023-03-20T16:01:45.871Z,12.53
2023-03-20T16:04:15.541Z,11.57
2023-03-20T16:06:49.363Z,12.40
2023-03-20T16:09:17.492Z,12.43
2023-03-20T16:11:46.920Z,13.37
2023-03-20T16:14:19.405Z,13.53
2023-03-20T16:16:49.497Z,12.97
2023-03-20T16:19:17.253Z,13.17
2023-03-20T16:21:51.842Z,13.63
2023-03-20T16:24:22.216Z,13.83
2023-03-20T16:26:52.744Z,15.17
2023-03-20T16:29:21.769Z,14.57
2023-03-20T16:31:54.110Z,14.07
2023-03-20T16:34:24.112Z,14.50
2023-03-20T16:36:58.249Z,14.83
2023-03-20T16:39:27.957Z,14.17
2023-03-20T16:42:19.121Z,14.17
2023-03-20T16:44:46.335Z,14.40
2023-03-20T16:47:18.336Z,13.70
2023-03-20T16:50:05.268Z,14.30
2023-03-20T16:52:38.839Z,14.20
2023-03-20T16:55:14.218Z,14.70
2023-03-20T16:57:42.524Z,14.77
2023-03-20T17:00:30.828Z,14.83
2023-03-20T17:03:12.854Z,14.07
2023-03-20T17:05:49.185Z,23.07
2023-03-20T17:08:26.928Z,22.20
2023-03-20T17:10:59.335Z,14.53
2023-03-20T17:13:26.554Z,14.67
2023-03-20T17:15:54.488Z,14.23
2023-03-20T17:18:21.475Z,14.17
2023-03-20T17:20:48.818Z,13.23
2023-03-20T17:23:20.088Z,13.40
2023-03-20T17:25:49.055Z,14.13
2023-03-20T17:28:20.403Z,13.30
2023-03-20T17:30:50.329Z,13.33
2023-03-20T17:33:21.227Z,13.30
2023-03-20T17:35:48.786Z,12.03
2023-03-20T17:38:21.769Z,12.37
2023-03-20T17:40:49.443Z,10.70
2023-03-20T17:43:17.911Z,10.60
2023-03-20T17:45:45.976Z,10.83
2023-03-20T17:48:18.268Z,10.47
2023-03-20T17:50:46.171Z,10.07
2023-03-20T17:53:18.012Z,10.23
2023-03-20T17:55:46.521Z,10.63
2023-03-20T17:58:15.661Z,10.20
2023-03-20T18:00:43.352Z,10.77
2023-03-20T18:03:10.492Z,11.23
2023-03-20T18:05:40.618Z,10.33
2023-03-20T18:08:13.287Z,10.67
2023-03-20T18:10:41.316Z,11.10
2023-03-20T18:13:09.758Z,10.93
2023-03-20T18:15:39.018Z,11.13
2023-03-20T18:18:07.775Z,10.97
2023-03-20T18:20:37.696Z,11.17
2023-03-20T18:23:06.279Z,11.17
2023-03-20T18:25:34.291Z,11.43
2023-03-20T18:28:03.142Z,9.97
2023-03-20T18:30:35.577Z,10.70
2023-03-20T18:33:03.340Z,10.67
2023-03-20T18:35:30.781Z,11.20
2023-03-20T18:37:58.478Z,10.87
2023-03-20T18:40:28.731Z,10.77
2023-03-20T18:42:57.357Z,10.60
2023-03-20T18:45:26.923Z,10.47
2023-03-20T18:47:55.987Z,10.20
2023-03-20T18:50:26.958Z,9.97
2023-03-20T18:52:55.520Z,10.43
2023-03-20T18:55:25.721Z,10.43
2023-03-20T18:57:52.592Z,10.27
2023-03-20T19:00:23.502Z,9.77
2023-03-20T19:02:51.741Z,8.97
2023-03-20T19:05:21.019Z,9.43
2023-03-20T19:07:48.390Z,9.60
2023-03-20T19:10:28.620Z,9.40
2023-03-20T19:12:56.526Z,8.53
2023-03-20T19:15:25.374Z,9.33
2023-03-20T19:17:52.627Z,8.73
2023-03-20T19:20:34.166Z,8.77
2023-03-20T19:23:03.583Z,8.77
2023-03-20T19:25:31.022Z,9.07
2023-03-20T19:27:58.575Z,8.60
2023-03-20T19:30:29.119Z,12.10
2023-03-20T19:32:56.314Z,8.70
2023-03-20T19:35:50.497Z,8.23
2023-03-20T19:38:15.226Z,7.80
2023-03-20T19:40:43.634Z,7.60
2023-03-20T19:43:11.220Z,7.57
2023-03-20T19:45:40.521Z,7.83
2023-03-20T19:48:13.998Z,7.23
2023-03-20T19:50:43.756Z,7.97
2023-03-20T19:53:16.493Z,7.13
2023-03-20T19:55:43.958Z,7.50
2023-03-20T19:58:12.096Z,7.03
2023-03-20T20:00:56.859Z,6.80
2023-03-20T20:03:26.462Z,6.70
2023-03-20T20:05:53.987Z,7.37
2023-03-20T20:08:34.010Z,6.20
2023-03-20T20:11:14.277Z,7.20
2023-03-20T20:14:03.634Z,7.00
2023-03-20T20:16:29.691Z,6.73
2023-03-20T20:18:57.136Z,7.53
2023-03-20T20:22:17.148Z,7.27
2023-03-20T20:24:12.625Z,6.93
2023-03-20T20:26:47.912Z,7.80
2023-03-20T20:29:20.370Z,8.07
2023-03-20T20:31:47.152Z,8.47
2023-03-20T20:35:21.981Z,8.30
2023-03-20T20:39:51.532Z,7.90
2023-03-20T20:42:18.685Z,8.10
2023-03-20T20:44:45.914Z,7.77
2023-03-20T20:47:13.602Z,8.27
2023-03-20T20:49:41.293Z,8.37
2023-03-20T20:52:09.378Z,7.97
2023-03-20T20:54:36.291Z,7.60
2023-03-20T20:57:04.467Z,8.30
2023-03-20T20:59:31.335Z,8.27
2023-03-20T21:01:58.290Z,9.67
2023-03-20T21:04:25.553Z,9.90
2023-03-20T21:07:10.835Z,10.67
2023-03-20T21:09:38.909Z,11.37
2023-03-20T21:12:08.999Z,11.43
2023-03-20T21:14:36.465Z,12.80
2023-03-20T21:17:03.881Z,12.63
2023-03-20T21:19:34.433Z,11.73
2023-03-20T21:22:01.334Z,13.30
2023-03-20T21:24:33.060Z,13.40
2023-03-20T21:27:01.483Z,13.73
2023-03-20T21:29:30.075Z,14.13
2023-03-20T21:31:57.042Z,14.07
2023-03-20T21:34:23.897Z,14.50
2023-03-20T21:36:52.369Z,15.17
2023-03-20T21:39:19.224Z,14.47
2023-03-20T21:41:47.098Z,14.37
2023-03-20T21:44:18.348Z,13.43
2023-03-20T21:47:39.769Z,14.70
2023-03-20T21:53:06.794Z,14.57
2023-03-20T21:58:56.374Z,14.57
2023-03-20T22:01:29.788Z,14.73
2023-03-20T22:04:31.854Z,14.90
2023-03-20T22:12:47.975Z,14.93
2023-03-20T22:26:56.693Z,14.63
2023-03-20T22:34:54.343Z,15.67
2023-03-20T22:45:38.443Z,16.23
2023-03-20T22:48:12.295Z,15.47
2023-03-20T22:50:40.158Z,14.80
2023-03-20T22:53:13.484Z,16.37
2023-03-20T22:55:45.227Z,16.40
2023-03-20T22:58:12.339Z,16.63
2023-03-20T23:00:39.451Z,16.93
2023-03-20T23:03:19.535Z,16.03
2023-03-20T23:05:59.889Z,16.07
2023-03-20T23:08:29.629Z,17.50
2023-03-20T23:11:07.788Z,16.50
2023-03-20T23:13:35.512Z,17.93
2023-03-20T23:16:02.778Z,17.93
2023-03-20T23:18:30.530Z,17.87
2023-03-20T23:20:58.363Z,17.60
2023-03-20T23:23:26.765Z,16.77
2023-03-20T23:26:04.086Z,17.87
2023-03-20T23:28:32.890Z,17.60
2023-03-20T23:31:10.522Z,17.37
2023-03-20T23:33:38.636Z,17.40
2023-03-20T23:36:18.691Z,17.07
2023-03-20T23:38:49.179Z,17.63
2023-03-20T23:41:17.660Z,17.87
2023-03-20T23:43:44.875Z,17.50
2023-03-20T23:46:12.287Z,18.13
2023-03-20T23:48:39.543Z,18.47
2023-03-20T23:51:07.602Z,19.10
2023-03-20T23:53:34.800Z,18.43
2023-03-20T23:56:01.791Z,19.63
2023-03-20T23:58:32.538Z,21.37
